createdAt,value
2018-09-19T00:00:05.568Z,4.65
2018-09-19T00:02:33.807Z,4.37
2018-09-19T00:05:02.198Z,4.15
2018-09-19T00:07:36.626Z,4.60
2018-09-19T00:10:05.103Z,4.62
2018-09-19T00:12:33.449Z,4.20
2018-09-19T00:15:01.698Z,4.37
2018-09-19T00:17:30.343Z,4.42
2018-09-19T00:19:58.604Z,4.20
2018-09-19T00:22:26.988Z,4.42
2018-09-19T00:24:56.304Z,4.28
2018-09-19T00:27:24.522Z,4.20
2018-09-19T00:29:52.743Z,4.33
2018-09-19T00:32:21.019Z,4.22
2018-09-19T00:34:49.245Z,4.15
2018-09-19T00:37:17.506Z,4.05
2018-09-19T00:39:46.444Z,4.50
2018-09-19T00:42:14.657Z,4.65
2018-09-19T00:44:42.971Z,4.40
2018-09-19T00:47:13.871Z,4.50
2018-09-19T00:49:42.093Z,4.37
2018-09-19T00:52:10.353Z,4.35
2018-09-19T00:54:38.695Z,4.40
2018-09-19T00:57:06.918Z,4.60
2018-09-19T00:59:35.153Z,4.50
2018-09-19T01:02:03.932Z,4.25
2018-09-19T01:04:32.165Z,4.65
2018-09-19T01:07:00.463Z,4.53
2018-09-19T01:09:29.895Z,3.98
2018-09-19T01:11:58.105Z,4.37
2018-09-19T01:14:26.347Z,4.40
2018-09-19T01:16:54.827Z,4.22
2018-09-19T01:19:23.140Z,4.37
2018-09-19T01:21:51.378Z,4.10
2018-09-19T01:24:19.675Z,4.50
2018-09-19T01:26:47.991Z,4.62
2018-09-19T01:29:16.282Z,4.22
2018-09-19T01:31:45.814Z,4.45
2018-09-19T01:34:14.038Z,4.17
2018-09-19T01:36:42.347Z,4.60
2018-09-19T01:39:11.157Z,4.33
2018-09-19T01:41:39.412Z,4.62
2018-09-19T01:44:07.617Z,4.25
2018-09-19T01:46:36.028Z,4.42
2018-09-19T01:49:04.374Z,4.40
2018-09-19T01:51:32.635Z,4.30
2018-09-19T01:54:01.654Z,4.15
2018-09-19T01:56:29.889Z,4.47
2018-09-19T01:58:58.277Z,4.25
2018-09-19T02:01:27.094Z,4.50
2018-09-19T02:03:57.404Z,4.90
2018-09-19T02:06:25.614Z,4.22
2018-09-19T02:08:54.577Z,4.30
2018-09-19T02:11:23.549Z,4.58
2018-09-19T02:13:51.777Z,3.98
2018-09-19T02:16:20.390Z,4.35
2018-09-19T02:18:48.571Z,4.15
2018-09-19T02:21:16.869Z,4.12
2018-09-19T02:23:45.474Z,4.47
2018-09-19T02:26:13.713Z,4.45
2018-09-19T02:28:42.024Z,4.20
2018-09-19T02:31:10.610Z,4.40
2018-09-19T02:33:38.901Z,4.50
2018-09-19T02:36:07.121Z,4.42
2018-09-19T02:38:35.753Z,4.83
2018-09-19T02:41:03.966Z,4.20
2018-09-19T02:43:32.175Z,4.35
2018-09-19T02:46:01.290Z,4.65
2018-09-19T02:48:29.623Z,4.08
2018-09-19T02:50:57.881Z,4.35
2018-09-19T02:53:26.421Z,3.90
2018-09-19T02:55:54.705Z,4.37
2018-09-19T02:58:22.934Z,4.25
2018-09-19T03:00:51.568Z,4.03
2018-09-19T03:03:19.799Z,4.55
2018-09-19T03:05:48.085Z,4.40
2018-09-19T03:08:16.668Z,4.47
2018-09-19T03:10:44.893Z,4.15
2018-09-19T03:13:13.652Z,4.00
2018-09-19T03:15:41.955Z,4.33
2018-09-19T03:18:10.257Z,3.90
2018-09-19T03:20:38.474Z,4.33
2018-09-19T03:23:07.293Z,4.20
2018-09-19T03:25:35.493Z,4.08
2018-09-19T03:28:03.777Z,4.37
2018-09-19T03:30:32.431Z,4.67
2018-09-19T03:33:00.730Z,4.05
2018-09-19T03:35:29.000Z,4.58
2018-09-19T03:37:57.310Z,4.30
2018-09-19T03:40:25.716Z,3.80
2018-09-19T03:42:53.946Z,4.30
2018-09-19T03:45:22.495Z,4.22
2018-09-19T03:47:50.789Z,3.75
2018-09-19T03:50:19.013Z,4.00
2018-09-19T03:52:48.348Z,3.92
2018-09-19T03:55:16.606Z,3.80
2018-09-19T03:57:44.901Z,4.12
2018-09-19T04:00:13.300Z,4.20
2018-09-19T04:02:41.627Z,4.08
2018-09-19T04:05:09.850Z,4.05
2018-09-19T04:07:38.249Z,4.12
2018-09-19T04:10:06.461Z,3.83
2018-09-19T04:12:34.682Z,4.08
2018-09-19T04:15:04.070Z,4.20
2018-09-19T04:17:32.469Z,3.92
2018-09-19T04:20:00.769Z,4.03
2018-09-19T04:22:29.417Z,4.12
2018-09-19T04:24:57.662Z,4.15
2018-09-19T04:27:25.915Z,4.08
2018-09-19T04:29:54.349Z,4.05
2018-09-19T04:32:22.601Z,4.30
2018-09-19T04:34:50.806Z,4.47
2018-09-19T04:37:19.273Z,4.33
2018-09-19T04:39:47.550Z,4.20
2018-09-19T04:42:15.892Z,3.90
2018-09-19T04:44:44.829Z,3.72
2018-09-19T04:47:13.079Z,4.10
2018-09-19T04:49:41.370Z,3.70
2018-09-19T04:52:09.859Z,3.75
2018-09-19T04:54:38.104Z,4.03
2018-09-19T04:57:06.349Z,4.20
2018-09-19T04:59:35.081Z,4.33
2018-09-19T05:02:03.305Z,4.53
2018-09-19T05:04:33.502Z,4.28
2018-09-19T05:07:02.282Z,4.40
2018-09-19T05:09:30.517Z,4.45
2018-09-19T05:11:58.738Z,4.62
2018-09-19T05:14:27.215Z,4.42
2018-09-19T05:16:55.997Z,5.25
2018-09-19T05:19:24.318Z,4.87
2018-09-19T05:21:53.686Z,5.00
2018-09-19T05:24:21.934Z,4.83
2018-09-19T05:26:50.278Z,4.50
2018-09-19T05:29:18.819Z,4.37
2018-09-19T05:31:47.205Z,4.47
2018-09-19T05:34:15.451Z,4.45
2018-09-19T05:36:43.872Z,4.58
2018-09-19T05:39:12.105Z,4.33
2018-09-19T05:41:40.332Z,4.25
2018-09-19T05:44:09.105Z,4.40
2018-09-19T05:46:37.453Z,4.60
2018-09-19T05:49:05.795Z,4.70
2018-09-19T05:51:34.339Z,4.75
2018-09-19T05:54:02.589Z,4.85
2018-09-19T05:56:30.795Z,4.22
2018-09-19T05:58:59.388Z,4.25
2018-09-19T06:01:27.618Z,4.75
2018-09-19T06:03:56.026Z,4.72
2018-09-19T06:06:24.818Z,5.05
2018-09-19T06:08:53.062Z,4.80
2018-09-19T06:11:21.278Z,4.37
2018-09-19T06:13:49.859Z,4.65
2018-09-19T06:16:18.174Z,4.72
2018-09-19T06:18:47.202Z,5.00
2018-09-19T06:21:15.494Z,4.50
2018-09-19T06:23:43.791Z,4.30
2018-09-19T06:26:12.058Z,4.58
2018-09-19T06:28:40.955Z,4.58
2018-09-19T06:31:09.211Z,4.40
2018-09-19T06:33:37.491Z,4.33
2018-09-19T06:36:06.602Z,4.78
2018-09-19T06:38:34.835Z,5.08
2018-09-19T06:41:03.226Z,4.70
2018-09-19T06:43:31.374Z,4.50
2018-09-19T06:45:59.690Z,5.22
2018-09-19T06:48:27.923Z,4.67
2018-09-19T06:50:56.572Z,4.42
2018-09-19T06:53:24.876Z,4.35
2018-09-19T06:55:53.226Z,4.85
2018-09-19T06:58:22.014Z,4.75
2018-09-19T07:00:50.231Z,5.17
2018-09-19T07:03:18.451Z,4.70
2018-09-19T07:05:46.963Z,4.42
2018-09-19T07:08:15.366Z,4.53
2018-09-19T07:10:43.675Z,4.53
2018-09-19T07:13:12.089Z,4.17
2018-09-19T07:15:40.319Z,3.90
2018-09-19T07:18:08.824Z,4.35
2018-09-19T07:20:38.047Z,4.20
2018-09-19T07:23:06.558Z,4.37
2018-09-19T07:25:34.848Z,4.40
2018-09-19T07:28:03.619Z,4.42
2018-09-19T07:30:31.925Z,4.30
2018-09-19T07:33:00.213Z,4.85
2018-09-19T07:35:28.935Z,4.72
2018-09-19T07:37:57.152Z,5.20
2018-09-19T07:40:25.571Z,4.87
2018-09-19T07:42:54.379Z,4.78
2018-09-19T07:45:22.708Z,4.78
2018-09-19T07:47:50.969Z,4.33
2018-09-19T07:50:20.027Z,4.87
2018-09-19T07:52:48.346Z,4.40
2018-09-19T07:55:16.610Z,4.12
2018-09-19T07:57:45.058Z,4.20
2018-09-19T08:00:13.303Z,4.55
2018-09-19T08:02:41.550Z,4.72
2018-09-19T08:05:15.218Z,4.30
2018-09-19T08:07:43.526Z,4.65
2018-09-19T08:10:11.753Z,4.22
2018-09-19T08:12:40.570Z,4.60
2018-09-19T08:15:08.806Z,4.80
2018-09-19T08:17:37.038Z,4.72
2018-09-19T08:20:06.306Z,4.03
2018-09-19T08:22:34.610Z,4.37
2018-09-19T08:25:02.851Z,4.37
2018-09-19T08:27:31.863Z,4.35
2018-09-19T08:30:00.087Z,4.70
2018-09-19T08:32:28.311Z,4.90
2018-09-19T08:34:57.198Z,4.97
2018-09-19T08:37:25.426Z,4.80
2018-09-19T08:39:53.702Z,4.83
2018-09-19T08:42:22.627Z,5.47
2018-09-19T08:44:50.870Z,4.65
2018-09-19T08:47:19.073Z,4.55
2018-09-19T08:49:47.583Z,4.85
2018-09-19T08:52:15.825Z,5.00
2018-09-19T08:54:44.223Z,4.80
2018-09-19T08:57:12.760Z,4.53
2018-09-19T08:59:40.946Z,4.83
2018-09-19T09:02:09.202Z,4.92
2018-09-19T09:04:37.955Z,4.90
2018-09-19T09:07:06.213Z,4.65
2018-09-19T09:09:34.658Z,4.92
2018-09-19T09:12:03.049Z,5.35
2018-09-19T09:14:31.246Z,5.22
2018-09-19T09:16:59.466Z,4.60
2018-09-19T09:19:27.786Z,5.33
2018-09-19T09:21:57.346Z,5.33
2018-09-19T09:24:25.579Z,5.03
2018-09-19T09:26:54.519Z,4.90
2018-09-19T09:29:22.814Z,4.62
2018-09-19T09:31:51.059Z,5.25
2018-09-19T09:34:19.713Z,4.75
2018-09-19T09:36:47.961Z,4.58
2018-09-19T09:39:16.223Z,5.00
2018-09-19T09:41:44.662Z,4.90
2018-09-19T09:44:13.010Z,5.00
2018-09-19T09:46:41.467Z,4.40
2018-09-19T09:49:09.922Z,5.15
2018-09-19T09:51:38.159Z,5.25
2018-09-19T09:54:06.467Z,4.20
2018-09-19T09:56:34.955Z,4.70
2018-09-19T09:59:03.270Z,4.67
2018-09-19T10:01:31.535Z,4.87
2018-09-19T10:04:01.726Z,4.30
2018-09-19T10:06:29.995Z,4.12
2018-09-19T10:08:58.178Z,4.70
2018-09-19T10:11:26.866Z,5.80
2018-09-19T10:13:55.190Z,5.47
2018-09-19T10:16:23.503Z,5.42
2018-09-19T10:18:51.997Z,5.50
2018-09-19T10:21:20.232Z,5.62
2018-09-19T10:23:49.462Z,5.40
2018-09-19T10:26:18.179Z,5.40
2018-09-19T10:28:46.408Z,5.15
2018-09-19T10:31:14.710Z,5.55
2018-09-19T10:33:43.499Z,5.15
2018-09-19T10:36:11.815Z,5.28
2018-09-19T10:38:40.043Z,4.33
2018-09-19T10:41:08.371Z,4.67
2018-09-19T10:43:36.677Z,4.83
2018-09-19T10:46:04.907Z,5.92
2018-09-19T10:48:33.746Z,9.48
2018-09-19T10:51:01.960Z,6.75
2018-09-19T10:53:30.302Z,9.10
2018-09-19T10:55:58.547Z,9.55
2018-09-19T10:58:26.785Z,8.35
2018-09-19T11:00:55.033Z,5.70
2018-09-19T11:03:25.770Z,6.55
2018-09-19T11:05:54.007Z,8.03
2018-09-19T11:08:22.518Z,8.45
2018-09-19T11:10:51.190Z,7.83
2018-09-19T11:13:19.412Z,6.42
2018-09-19T11:15:47.826Z,6.10
2018-09-19T11:18:16.175Z,19.73
2018-09-19T11:20:44.409Z,5.67
2018-09-19T11:23:12.643Z,8.43
2018-09-19T11:25:42.362Z,8.45
2018-09-19T11:28:10.590Z,7.78
2018-09-19T11:30:38.835Z,7.85
2018-09-19T11:33:07.464Z,6.95
2018-09-19T11:35:35.782Z,5.08
2018-09-19T11:38:04.030Z,4.60
2018-09-19T11:40:32.609Z,6.33
2018-09-19T11:43:00.919Z,5.55
2018-09-19T11:45:29.228Z,5.55
2018-09-19T11:47:58.363Z,5.78
2018-09-19T11:50:26.588Z,5.80
2018-09-19T11:52:54.814Z,5.95
2018-09-19T11:55:23.816Z,5.60
2018-09-19T11:57:52.098Z,5.58
2018-09-19T12:00:20.318Z,5.03
2018-09-19T12:02:49.258Z,5.17
2018-09-19T12:05:17.567Z,4.83
2018-09-19T12:07:45.870Z,4.60
2018-09-19T12:10:15.206Z,4.80
2018-09-19T12:12:43.515Z,4.58
2018-09-19T12:15:11.814Z,5.08
2018-09-19T12:17:40.122Z,5.15
2018-09-19T12:20:08.422Z,4.65
2018-09-19T12:22:36.771Z,4.47
2018-09-19T12:25:06.618Z,4.37
2018-09-19T12:27:35.909Z,4.85
2018-09-19T12:30:04.367Z,4.92
2018-09-19T12:32:33.073Z,4.45
2018-09-19T12:35:01.318Z,4.03
2018-09-19T12:37:29.539Z,4.10
2018-09-19T12:39:58.414Z,4.30
2018-09-19T12:42:26.647Z,4.47
2018-09-19T12:44:54.977Z,4.37
2018-09-19T12:47:23.973Z,4.15
2018-09-19T12:49:52.213Z,3.95
2018-09-19T12:52:20.561Z,3.90
2018-09-19T12:54:49.002Z,3.98
2018-09-19T12:57:17.269Z,4.47
2018-09-19T12:59:45.590Z,3.72
2018-09-19T13:02:13.916Z,3.77
2018-09-19T13:04:42.239Z,3.80
2018-09-19T13:07:10.440Z,3.95
2018-09-19T13:09:39.822Z,4.28
2018-09-19T13:12:08.073Z,3.75
2018-09-19T13:14:36.386Z,4.08
2018-09-19T13:17:04.876Z,4.05
2018-09-19T13:19:33.096Z,3.98
2018-09-19T13:22:01.414Z,3.70
2018-09-19T13:24:29.766Z,3.95
2018-09-19T13:26:58.134Z,3.67
2018-09-19T13:29:27.787Z,3.65
2018-09-19T13:31:56.142Z,3.60
2018-09-19T13:34:24.545Z,3.62
2018-09-19T13:36:52.776Z,3.58
2018-09-19T13:39:21.674Z,3.50
2018-09-19T13:41:49.995Z,3.45
2018-09-19T13:44:18.363Z,3.20
2018-09-19T13:46:47.492Z,3.50
2018-09-19T13:49:28.545Z,3.15
2018-09-19T13:51:57.485Z,3.75
2018-09-19T13:54:25.726Z,3.02
2018-09-19T13:56:54.026Z,3.40
2018-09-19T13:59:22.531Z,3.25
2018-09-19T14:01:50.926Z,3.55
2018-09-19T14:04:21.383Z,3.62
2018-09-19T14:06:49.641Z,3.25
2018-09-19T14:09:17.880Z,3.40
2018-09-19T14:11:46.191Z,3.60
2018-09-19T14:14:14.418Z,3.22
2018-09-19T14:16:42.722Z,3.40
2018-09-19T14:19:12.352Z,3.40
2018-09-19T14:21:41.325Z,3.15
2018-09-19T14:24:09.551Z,3.12
2018-09-19T14:26:37.874Z,3.45
2018-09-19T14:29:06.874Z,3.40
2018-09-19T14:31:35.142Z,3.65
2018-09-19T14:34:03.435Z,3.47
2018-09-19T14:36:31.923Z,3.40
2018-09-19T14:39:00.238Z,3.25
2018-09-19T14:41:28.483Z,3.72
2018-09-19T14:43:57.561Z,3.35
2018-09-19T14:46:25.782Z,3.47
2018-09-19T14:48:54.178Z,3.65
2018-09-19T14:51:23.006Z,4.00
2018-09-19T14:53:51.326Z,4.37
2018-09-19T14:56:19.674Z,4.08
2018-09-19T14:58:48.655Z,3.52
2018-09-19T15:01:17.305Z,3.60
2018-09-19T15:03:45.545Z,4.10
2018-09-19T15:06:14.254Z,3.52
2018-09-19T15:08:42.583Z,4.00
2018-09-19T15:11:10.910Z,3.75
2018-09-19T15:13:39.754Z,4.08
2018-09-19T15:16:08.280Z,4.00
2018-09-19T15:18:36.518Z,3.52
2018-09-19T15:21:05.326Z,4.00
2018-09-19T15:23:33.605Z,3.50
2018-09-19T15:26:01.839Z,3.87
2018-09-19T15:28:30.498Z,3.30
2018-09-19T15:30:58.890Z,4.17
2018-09-19T15:33:27.113Z,4.20
2018-09-19T15:35:55.726Z,4.03
2018-09-19T15:38:23.950Z,3.92
2018-09-19T15:40:52.183Z,4.50
2018-09-19T15:43:21.426Z,4.45
2018-09-19T15:45:49.736Z,4.40
2018-09-19T15:48:17.990Z,4.20
2018-09-19T15:50:46.465Z,4.37
2018-09-19T15:53:14.703Z,4.08
2018-09-19T15:55:43.044Z,4.20
2018-09-19T15:58:11.547Z,3.92
2018-09-19T16:00:39.986Z,4.53
2018-09-19T16:03:08.324Z,4.22
2018-09-19T16:05:37.805Z,4.12
2018-09-19T16:08:06.805Z,3.87
2018-09-19T16:10:35.054Z,3.90
2018-09-19T16:13:03.407Z,4.85
2018-09-19T16:15:31.866Z,4.33
2018-09-19T16:18:00.098Z,3.92
2018-09-19T16:20:28.552Z,4.65
2018-09-19T16:22:56.821Z,4.62
2018-09-19T16:25:25.080Z,5.00
2018-09-19T16:27:54.211Z,4.90
2018-09-19T16:30:22.451Z,4.45
2018-09-19T16:32:50.722Z,4.60
2018-09-19T16:35:19.638Z,4.45
2018-09-19T16:37:47.996Z,4.50
2018-09-19T16:40:16.214Z,4.50
2018-09-19T16:42:44.632Z,4.90
2018-09-19T16:45:12.871Z,4.03
2018-09-19T16:47:41.150Z,4.25
2018-09-19T16:50:10.540Z,4.72
2018-09-19T16:52:38.815Z,4.08
2018-09-19T16:55:07.079Z,3.98
2018-09-19T16:57:35.779Z,4.20
2018-09-19T17:00:04.479Z,4.47
2018-09-19T17:02:32.748Z,4.30
2018-09-19T17:05:05.113Z,4.53
2018-09-19T17:07:33.379Z,3.80
2018-09-19T17:10:02.032Z,4.28
2018-09-19T17:12:30.325Z,4.33
2018-09-19T17:14:58.571Z,4.35
2018-09-19T17:17:26.887Z,4.50
2018-09-19T17:19:55.233Z,4.00
2018-09-19T17:22:23.479Z,4.03
2018-09-19T17:24:51.723Z,4.30
2018-09-19T17:27:21.038Z,4.08
2018-09-19T17:29:49.286Z,4.33
2018-09-19T17:32:17.661Z,4.17
2018-09-19T17:34:45.910Z,4.17
2018-09-19T17:37:14.379Z,4.53
2018-09-19T17:39:42.603Z,4.00
2018-09-19T17:42:10.883Z,3.90
2018-09-19T17:44:39.143Z,4.03
2018-09-19T17:47:07.403Z,4.00
2018-09-19T17:49:37.031Z,4.10
2018-09-19T17:52:05.303Z,4.10
2018-09-19T17:54:33.672Z,3.98
2018-09-19T17:57:01.967Z,3.60
2018-09-19T17:59:30.247Z,3.85
2018-09-19T18:01:58.492Z,4.55
2018-09-19T18:04:27.147Z,4.75
2018-09-19T18:06:55.423Z,4.37
2018-09-19T18:09:23.847Z,4.40
2018-09-19T18:11:54.534Z,3.58
2018-09-19T18:14:22.881Z,4.33
2018-09-19T18:16:51.148Z,4.17
2018-09-19T18:19:19.974Z,3.65
2018-09-19T18:21:48.234Z,3.87
2018-09-19T18:24:16.503Z,3.77
2018-09-19T18:26:45.122Z,4.20
2018-09-19T18:29:13.414Z,4.00
2018-09-19T18:31:41.906Z,3.30
2018-09-19T18:34:11.578Z,3.67
2018-09-19T18:36:40.142Z,3.60
2018-09-19T18:39:08.418Z,3.95
2018-09-19T18:41:37.852Z,3.50
2018-09-19T18:44:06.094Z,3.65
2018-09-19T18:46:34.555Z,3.80
2018-09-19T18:49:03.190Z,3.42
2018-09-19T18:51:31.527Z,3.60
2018-09-19T18:53:59.810Z,3.47
2018-09-19T18:56:29.346Z,3.60
2018-09-19T18:58:57.684Z,3.58
2018-09-19T19:01:25.960Z,3.65
2018-09-19T19:03:54.292Z,3.75
2018-09-19T19:06:22.559Z,3.77
2018-09-19T19:08:50.990Z,3.47
2018-09-19T19:11:19.345Z,3.27
2018-09-19T19:13:49.112Z,3.58
2018-09-19T19:16:17.902Z,3.83
2018-09-19T19:18:46.526Z,3.30
2018-09-19T19:21:14.837Z,3.60
2018-09-19T19:23:43.270Z,3.35
2018-09-19T19:26:11.919Z,3.45
2018-09-19T19:28:40.199Z,4.10
2018-09-19T19:31:08.513Z,3.50
2018-09-19T19:33:38.150Z,3.45
2018-09-19T19:36:06.556Z,3.27
2018-09-19T19:38:34.821Z,3.80
2018-09-19T19:41:03.467Z,3.60
2018-09-19T19:43:31.754Z,3.37
2018-09-19T19:46:00.036Z,3.30
2018-09-19T19:48:28.418Z,3.50
2018-09-19T19:50:56.792Z,3.08
2018-09-19T19:53:25.091Z,3.30
2018-09-19T19:55:57.434Z,3.20
2018-09-19T19:58:25.685Z,3.70
2018-09-19T20:00:53.936Z,3.70
2018-09-19T20:03:22.236Z,3.00
2018-09-19T20:05:52.695Z,3.60
2018-09-19T20:08:20.946Z,3.37
2018-09-19T20:10:49.667Z,3.33
2018-09-19T20:13:17.919Z,3.27
2018-09-19T20:15:46.176Z,3.15
2018-09-19T20:18:15.196Z,3.10
2018-09-19T20:20:43.565Z,2.85
2018-09-19T20:23:11.843Z,3.10
2018-09-19T20:25:40.648Z,3.15
2018-09-19T20:28:09.002Z,3.60
2018-09-19T20:30:37.237Z,3.08
2018-09-19T20:33:06.079Z,3.00
2018-09-19T20:35:34.335Z,2.83
2018-09-19T20:38:02.666Z,2.95
2018-09-19T20:40:31.011Z,2.95
2018-09-19T20:42:59.242Z,3.10
2018-09-19T20:45:27.782Z,3.05
2018-09-19T20:47:57.069Z,2.98
2018-09-19T20:50:25.463Z,2.50
2018-09-19T20:52:53.688Z,2.90
2018-09-19T20:55:21.966Z,3.20
2018-09-19T20:57:50.213Z,2.72
2018-09-19T21:00:18.638Z,2.92
2018-09-19T21:02:47.007Z,3.00
2018-09-19T21:05:15.311Z,2.67
2018-09-19T21:07:44.364Z,2.52
2018-09-19T21:10:13.212Z,2.67
2018-09-19T21:12:41.514Z,2.80
2018-09-19T21:15:09.810Z,2.85
2018-09-19T21:17:38.436Z,2.92
2018-09-19T21:20:06.775Z,3.25
2018-09-19T21:22:35.046Z,2.60
2018-09-19T21:25:03.570Z,2.90
2018-09-19T21:27:31.827Z,2.55
2018-09-19T21:30:00.066Z,2.87
2018-09-19T21:32:29.115Z,2.92
2018-09-19T21:34:57.370Z,2.60
2018-09-19T21:37:25.684Z,2.70
2018-09-19T21:39:54.134Z,2.70
2018-09-19T21:42:22.524Z,2.80
2018-09-19T21:44:50.766Z,2.58
2018-09-19T21:47:19.402Z,2.52
2018-09-19T21:49:47.763Z,2.70
2018-09-19T21:52:16.003Z,2.92
2018-09-19T21:54:45.363Z,2.58
2018-09-19T21:57:13.574Z,2.42
2018-09-19T21:59:41.902Z,2.70
2018-09-19T22:02:10.486Z,2.92
2018-09-19T22:04:38.797Z,2.15
2018-09-19T22:07:07.182Z,2.70
2018-09-19T22:09:36.151Z,2.50
2018-09-19T22:12:09.011Z,2.30
2018-09-19T22:14:38.634Z,2.75
2018-09-19T22:17:06.898Z,2.87
2018-09-19T22:19:35.153Z,2.45
2018-09-19T22:22:04.083Z,2.10
2018-09-19T22:24:32.810Z,2.30
2018-09-19T22:27:01.047Z,2.27
2018-09-19T22:29:29.522Z,2.70
2018-09-19T22:31:57.829Z,2.10
2018-09-19T22:34:26.318Z,2.42
2018-09-19T22:36:55.385Z,2.50
2018-09-19T22:39:23.609Z,2.25
2018-09-19T22:41:51.843Z,2.40
2018-09-19T22:44:20.336Z,2.42
2018-09-19T22:46:48.626Z,2.40
2018-09-19T22:49:16.876Z,2.50
2018-09-19T22:51:45.868Z,2.37
2018-09-19T22:54:14.094Z,2.30
2018-09-19T22:56:42.326Z,2.58
2018-09-19T22:59:11.206Z,2.40
2018-09-19T23:01:39.502Z,2.60
2018-09-19T23:04:09.695Z,2.40
2018-09-19T23:06:38.055Z,2.40
2018-09-19T23:09:07.519Z,2.50
2018-09-19T23:11:36.682Z,2.55
2018-09-19T23:14:04.915Z,2.20
2018-09-19T23:16:33.146Z,2.10
2018-09-19T23:19:01.618Z,2.42
2018-09-19T23:21:29.851Z,2.00
2018-09-19T23:23:58.178Z,2.20
2018-09-19T23:26:27.359Z,2.62
2018-09-19T23:28:55.775Z,2.55
2018-09-19T23:31:24.083Z,2.20
2018-09-19T23:33:52.702Z,2.33
2018-09-19T23:36:20.939Z,2.15
2018-09-19T23:38:49.167Z,2.00
2018-09-19T23:41:17.647Z,2.30
2018-09-19T23:43:45.884Z,2.40
2018-09-19T23:46:14.189Z,2.30
2018-09-19T23:48:42.777Z,2.10
2018-09-19T23:51:11.062Z,2.40
2018-09-19T23:53:39.308Z,2.25
2018-09-19T23:56:07.575Z,2.10
2018-09-19T23:58:35.824Z,2.10
